West Dover, VT

9:26 PM EDT on July 06, 2015 (GMT -0400)
Upload Testing | | Change Station
CLOSE
Current Station
Personal Weather Station
Location: Dover, VT
Elevation: 1916 ft
Nearby Weather Stations

Elev 1916 ft 42.94 °N, 72.88 °W | Updated 19 seconds ago

Clear
Clear
64.7 °F
Feels Like 64.7 °F
N
0.0
Wind Variable Wind from WSW
Gusts 0.0 mph

Today
High -- | Low -- °F
--% Chance of Precip.
Yesterday
High -- | Low -- °F
Precip. -- in
5:19 AM 8:32 PM
Waning Gibbous, 70% visible
Pressure 30.09 in
Visibility 3.0 miles
Clouds Clear
Dew Point 61 °F
Humidity 86%
Rainfall 0.36 in
Snow Depth Not available.
UV 0 out of 12
Pollen 5.10 out of 12
Air Quality Not available.
Flu Activity Not available.
SPECI KDDH 070117Z AUTO 00000KT 3SM BR CLR 19/17 A3009 RMK AO2 T01940172

More Conditions Fewer Conditions

Pressure 30.09 in
Visibility 3.0 miles
Clouds Clear
Dew Point 61 °F
Humidity 86%
Rainfall 0.36 in
Snow Depth Not available.
UV 0 out of 12
Pollen 5.10 out of 12
Air Quality Not available.
Flu Activity Not available.
SPECI KDDH 070117Z AUTO 00000KT 3SM BR CLR 19/17 A3009 RMK AO2 T01940172

More Conditions Fewer Conditions

10-Day Weather Forecast

×

Almanac

Astronomy

Jul. 06, 2015 Rise Set
Actual Time
Civil Twilight
Nautical Twilight
Astronomical Twilight
Moon
Length of Visible Light
Length of Day
Tomorrow will be .
, % of the Moon is Illuminated

Today's Extremes

State Highs State Lows

Community

WunderPhotos

Upload Photos

1,835,689 photos uploaded!

WunderBlogs® & News

Nearby

Air Quality

  Air Quality AQ Index Pollutant
Not available.

Snow Depth

Station Depth Elevation

Earthquake Activity

City Distance Mag. Time & Date
Minimum magnitude displayed is 2.5.

Coastal Water Temperatures

Place Temperature

Stations

Nearby Weather Stations

Station Location Temp. Windchill Dew Point Humidity Wind Precip. Elev Updated Type